createdAt,value
2023-01-03T00:00:24.793Z,111.90
2023-01-03T00:02:51.903Z,114.43
2023-01-03T00:05:18.885Z,121.97
2023-01-03T00:07:45.725Z,116.22
2023-01-03T00:10:12.708Z,119.55
2023-01-03T00:12:39.748Z,115.68
2023-01-03T00:15:07.081Z,111.18
2023-01-03T00:17:34.090Z,110.70
2023-01-03T00:20:01.113Z,118.95
2023-01-03T00:22:31.837Z,122.97
2023-01-03T00:24:58.778Z,124.03
2023-01-03T00:27:27.071Z,122.28
2023-01-03T00:29:55.517Z,124.32
2023-01-03T00:32:22.434Z,122.95
2023-01-03T00:34:49.267Z,133.95
2023-01-03T00:37:16.405Z,129.70
2023-01-03T00:39:43.971Z,126.53
2023-01-03T00:42:10.931Z,119.32
2023-01-03T00:44:37.865Z,122.88
2023-01-03T00:47:04.871Z,132.35
2023-01-03T00:49:31.761Z,124.88
2023-01-03T00:51:58.874Z,130.25
2023-01-03T00:54:25.889Z,124.82
2023-01-03T00:56:53.181Z,131.20
2023-01-03T00:59:21.571Z,129.32
2023-01-03T01:01:54.187Z,128.73
2023-01-03T01:04:25.087Z,125.85
2023-01-03T01:06:59.036Z,128.95
2023-01-03T01:09:37.739Z,128.82
2023-01-03T01:12:07.148Z,125.40
2023-01-03T01:14:34.344Z,127.90
2023-01-03T01:17:04.627Z,122.38
2023-01-03T01:19:37.558Z,114.55
2023-01-03T01:22:05.005Z,117.55
2023-01-03T01:24:32.383Z,123.47
2023-01-03T01:26:59.424Z,109.70
2023-01-03T01:29:27.524Z,118.60
2023-01-03T01:31:54.501Z,114.20
2023-01-03T01:34:21.769Z,106.63
2023-01-03T01:36:49.118Z,103.38
2023-01-03T01:39:27.870Z,97.33
2023-01-03T01:42:20.292Z,100.03
2023-01-03T01:44:52.484Z,99.90
2023-01-03T01:47:39.556Z,105.90
2023-01-03T01:50:30.549Z,95.75
2023-01-03T01:53:15.435Z,99.57
2023-01-03T01:55:56.225Z,96.47
2023-01-03T01:58:26.728Z,101.25
2023-01-03T02:00:54.407Z,101.82
2023-01-03T02:03:21.324Z,114.10
2023-01-03T02:05:52.409Z,100.75
2023-01-03T04:09:48.316Z,153.40
2023-01-03T04:12:15.236Z,164.35
2023-01-03T04:14:42.163Z,161.48
2023-01-03T04:17:10.695Z,163.50
2023-01-03T04:19:37.600Z,164.20
2023-01-03T04:22:04.559Z,142.95
2023-01-03T04:24:31.367Z,153.07
2023-01-03T04:26:58.251Z,161.00
2023-01-03T04:29:25.238Z,154.38
2023-01-03T04:31:52.248Z,155.48
2023-01-03T04:34:19.180Z,164.02
2023-01-03T04:36:46.282Z,156.88
2023-01-03T04:39:13.173Z,156.75
2023-01-03T04:41:40.150Z,155.48
2023-01-03T04:44:07.002Z,153.68
2023-01-03T04:46:39.356Z,147.68
2023-01-03T04:49:08.680Z,153.82
2023-01-03T04:51:36.398Z,150.25
2023-01-03T04:54:04.518Z,151.40
2023-01-03T04:56:34.775Z,165.25
2023-01-03T04:59:01.722Z,159.05
2023-01-03T05:01:29.172Z,174.88
2023-01-03T05:04:00.904Z,174.88
2023-01-03T05:06:28.877Z,164.10
2023-01-03T05:08:56.048Z,174.40
2023-01-03T05:11:23.842Z,167.18
2023-01-03T05:13:50.795Z,178.73
2023-01-03T05:16:17.972Z,169.07
2023-01-03T05:18:45.136Z,165.70
2023-01-03T05:21:38.438Z,169.93
2023-01-03T05:24:24.782Z,147.63
2023-01-03T05:26:53.146Z,149.02
2023-01-03T05:29:22.167Z,151.40
2023-01-03T05:31:49.984Z,147.27
2023-01-03T05:34:17.214Z,143.60
2023-01-03T05:36:44.185Z,140.07
2023-01-03T05:39:11.322Z,150.48
2023-01-03T05:41:57.074Z,148.75
2023-01-03T05:44:24.456Z,149.88
2023-01-03T05:46:51.935Z,140.25
2023-01-03T05:49:18.814Z,140.77
2023-01-03T05:51:45.784Z,151.50
2023-01-03T05:54:15.247Z,138.68
2023-01-03T05:56:42.773Z,147.10
2023-01-03T05:59:10.171Z,147.85
2023-01-03T06:01:39.795Z,145.90
2023-01-03T06:04:07.368Z,150.10
2023-01-03T06:06:34.504Z,151.00
2023-01-03T06:09:02.115Z,144.35
2023-01-03T06:11:29.108Z,144.02
2023-01-03T06:13:56.059Z,137.05
2023-01-03T06:16:43.210Z,141.98
2023-01-03T06:19:10.367Z,140.00
2023-01-03T06:21:37.880Z,151.35
2023-01-03T06:24:05.238Z,161.32
2023-01-03T06:26:32.130Z,153.27
2023-01-03T06:28:59.727Z,147.60
2023-01-03T06:31:27.102Z,153.27
2023-01-03T06:33:56.401Z,145.10
2023-01-03T06:36:26.255Z,147.15
2023-01-03T06:38:54.130Z,156.65
2023-01-03T06:41:21.819Z,152.98
2023-01-03T06:43:49.185Z,151.38
2023-01-03T06:46:35.493Z,151.25
2023-01-03T06:49:21.030Z,141.75
2023-01-03T06:52:09.175Z,140.32
2023-01-03T06:54:38.979Z,139.95
2023-01-03T06:57:05.977Z,149.07
2023-01-03T06:59:33.155Z,140.43
2023-01-03T07:02:00.231Z,135.75
2023-01-03T07:04:27.757Z,147.52
2023-01-03T07:06:54.803Z,132.45
2023-01-03T07:09:21.738Z,138.02
2023-01-03T07:11:48.711Z,138.18
2023-01-03T07:14:15.587Z,135.82
2023-01-03T07:16:49.073Z,131.27
2023-01-03T07:19:19.319Z,133.05
2023-01-03T07:21:46.864Z,133.38
2023-01-03T07:24:16.157Z,126.20
2023-01-03T07:29:11.318Z,126.20
2023-01-03T07:31:41.865Z,130.40
2023-01-03T07:34:09.613Z,132.90
2023-01-03T07:36:36.850Z,143.40
2023-01-03T07:39:03.862Z,135.40
2023-01-03T07:41:49.334Z,135.32
2023-01-03T07:44:16.479Z,134.45
2023-01-03T07:46:43.396Z,139.82
2023-01-03T07:49:12.152Z,135.00
2023-01-03T07:51:39.574Z,166.57
2023-01-03T07:54:07.820Z,151.30
2023-01-03T07:56:35.456Z,148.30
2023-01-03T07:59:02.633Z,135.52
2023-01-03T08:01:30.634Z,141.68
2023-01-03T08:03:58.139Z,135.32
2023-01-03T08:06:25.035Z,130.98
2023-01-03T08:09:11.731Z,128.07
2023-01-03T08:11:57.619Z,131.98
2023-01-03T08:14:26.631Z,141.90
2023-01-03T08:16:55.332Z,122.30
2023-01-03T08:19:22.849Z,128.52
2023-01-03T08:21:49.855Z,135.60
2023-01-03T08:24:16.803Z,140.82
2023-01-03T08:26:43.859Z,131.48
2023-01-03T08:29:11.741Z,130.63
2023-01-03T08:31:44.560Z,135.50
2023-01-03T08:34:18.586Z,136.57
2023-01-03T08:36:57.211Z,132.15
2023-01-03T08:39:29.342Z,131.90
2023-01-03T08:42:02.454Z,132.43
2023-01-03T08:44:29.488Z,131.50
2023-01-03T08:47:00.329Z,127.45
2023-01-03T08:49:28.093Z,129.25
2023-01-03T08:51:55.285Z,131.32
2023-01-03T08:54:22.229Z,130.95
2023-01-03T08:56:49.109Z,133.85
2023-01-03T08:59:16.389Z,133.77
2023-01-03T09:01:43.362Z,145.10
2023-01-03T09:04:10.422Z,136.05
2023-01-03T09:06:37.471Z,131.05
2023-01-03T09:09:05.805Z,143.15
2023-01-03T09:11:32.854Z,133.37
2023-01-03T09:14:01.142Z,134.50
2023-01-03T09:16:28.005Z,127.45
2023-01-03T09:18:54.992Z,152.95
2023-01-03T09:21:21.942Z,132.93
2023-01-03T09:23:49.074Z,131.15
2023-01-03T09:26:16.039Z,131.85
2023-01-03T09:28:43.090Z,121.95
2023-01-03T09:31:10.046Z,125.47
2023-01-03T09:33:37.583Z,122.25
2023-01-03T09:36:05.350Z,127.30
2023-01-03T09:38:32.208Z,134.48
2023-01-03T09:41:08.857Z,129.57
2023-01-03T09:43:46.090Z,131.98
2023-01-03T09:46:22.034Z,142.23
2023-01-03T09:48:50.630Z,137.40
2023-01-03T09:51:58.209Z,136.25
2023-01-03T09:54:48.417Z,141.27
2023-01-03T09:57:38.181Z,137.85
2023-01-03T10:00:31.154Z,129.40
2023-01-03T10:03:37.495Z,134.77
2023-01-03T10:06:25.542Z,145.52
2023-01-03T10:09:07.121Z,143.60
2023-01-03T10:12:00.252Z,134.73
2023-01-03T10:14:55.654Z,135.20
2023-01-03T10:17:45.667Z,139.13
2023-01-03T10:20:26.278Z,130.38
2023-01-03T10:22:56.832Z,138.27
2023-01-03T10:25:24.721Z,137.82
2023-01-03T10:28:16.448Z,125.13
2023-01-03T10:30:49.425Z,138.43
2023-01-03T10:33:37.987Z,131.07
2023-01-03T10:36:05.936Z,135.07
2023-01-03T10:38:38.429Z,144.73
2023-01-03T10:41:20.807Z,138.15
2023-01-03T10:44:04.521Z,138.10
2023-01-03T10:46:31.705Z,135.65
2023-01-03T10:49:27.739Z,143.35
2023-01-03T10:52:01.203Z,152.70
2023-01-03T10:54:44.369Z,139.88
2023-01-03T10:57:38.268Z,140.13
2023-01-03T11:00:22.121Z,129.52
2023-01-03T11:02:50.140Z,130.23
2023-01-03T11:05:20.631Z,133.43
2023-01-03T11:07:55.568Z,128.52
2023-01-03T11:10:24.500Z,123.75
2023-01-03T11:12:51.528Z,126.80
2023-01-03T11:15:39.166Z,125.28
2023-01-03T11:18:17.477Z,118.68
2023-01-03T11:20:52.510Z,122.20
2023-01-03T11:23:49.069Z,121.30
2023-01-03T11:26:37.647Z,112.90
2023-01-03T11:29:22.804Z,103.80
2023-01-03T11:32:13.798Z,110.15
2023-01-03T11:35:25.904Z,108.72
2023-01-03T11:38:13.847Z,107.65
2023-01-03T11:40:49.364Z,117.85
2023-01-03T11:43:37.731Z,110.28
2023-01-03T11:46:31.060Z,104.72
2023-01-03T11:49:04.031Z,108.57
2023-01-03T11:51:43.520Z,100.90
2023-01-03T11:54:46.521Z,96.15
2023-01-03T11:57:44.791Z,99.35
2023-01-03T12:00:28.739Z,96.57
2023-01-03T12:03:04.313Z,93.40
2023-01-03T12:05:37.626Z,94.88
2023-01-03T12:08:04.725Z,90.65
2023-01-03T12:10:43.550Z,90.78
2023-01-03T12:13:32.116Z,87.38
2023-01-03T12:16:08.864Z,91.22
2023-01-03T12:18:55.154Z,87.75
2023-01-03T12:21:34.871Z,85.43
2023-01-03T12:24:04.947Z,90.00
2023-01-03T12:26:34.133Z,94.47
2023-01-03T12:31:48.000Z,95.15
2023-01-03T12:34:24.488Z,96.30
2023-01-03T12:37:19.039Z,90.85
2023-01-03T12:40:04.068Z,88.78
2023-01-03T12:42:43.823Z,100.85
2023-01-03T12:45:38.644Z,96.45
2023-01-03T12:48:13.529Z,93.10
2023-01-03T12:50:45.783Z,100.78
2023-01-03T12:53:22.227Z,99.85
2023-01-03T12:55:58.351Z,92.82
2023-01-03T12:58:39.730Z,99.18
2023-01-03T13:01:42.337Z,99.03
2023-01-03T13:04:23.783Z,101.72
2023-01-03T13:07:05.896Z,106.40
2023-01-03T13:09:41.046Z,107.40
2023-01-03T13:12:19.104Z,104.18
2023-01-03T13:15:02.836Z,107.05
2023-01-03T13:17:33.155Z,107.85
2023-01-03T13:20:24.432Z,102.72
2023-01-03T13:23:00.297Z,107.95
2023-01-03T13:25:40.608Z,109.00
2023-01-03T13:28:19.971Z,113.30
2023-01-03T13:33:16.607Z,109.15
2023-01-03T13:35:46.818Z,105.85
2023-01-03T13:38:28.957Z,103.70
2023-01-03T13:41:26.101Z,106.53
2023-01-03T13:43:55.372Z,107.25
2023-01-03T13:46:31.728Z,106.82
2023-01-03T13:49:07.930Z,105.50
2023-01-03T13:51:41.227Z,78.70
2023-01-03T13:54:11.093Z,70.18
2023-01-03T13:56:44.103Z,59.25
2023-01-03T13:59:14.046Z,40.40
2023-01-03T14:02:15.842Z,26.55
2023-01-03T14:04:55.047Z,21.77
2023-01-03T14:08:13.950Z,15.07
2023-01-03T14:11:02.731Z,16.48
2023-01-03T14:13:49.954Z,13.48
2023-01-03T14:16:24.999Z,13.38
2023-01-03T14:19:12.185Z,12.13
2023-01-03T14:21:47.996Z,14.45
2023-01-03T14:24:36.278Z,14.05
2023-01-03T14:27:17.778Z,14.50
2023-01-03T14:29:50.980Z,16.13
2023-01-03T14:32:33.995Z,15.50
2023-01-03T14:35:02.219Z,16.73
2023-01-03T14:37:33.294Z,12.95
2023-01-03T14:40:06.367Z,13.32
2023-01-03T14:42:33.498Z,13.13
2023-01-03T14:45:03.816Z,16.17
2023-01-03T14:47:42.880Z,15.80
2023-01-03T14:50:25.772Z,35.58
2023-01-03T14:52:55.651Z,14.70
2023-01-03T14:55:28.280Z,19.13
2023-01-03T14:57:57.015Z,18.13
2023-01-03T15:00:32.632Z,18.38
2023-01-03T15:03:02.203Z,15.95
2023-01-03T15:05:35.451Z,14.68
2023-01-03T15:08:15.292Z,14.77
2023-01-03T15:13:24.133Z,17.08
2023-01-03T15:18:31.816Z,19.67
2023-01-03T15:21:02.365Z,15.70
2023-01-03T15:23:46.509Z,18.08
2023-01-03T15:26:37.850Z,16.50
2023-01-03T15:29:16.856Z,15.25
2023-01-03T15:31:58.770Z,18.10
2023-01-03T15:34:28.707Z,15.98
2023-01-03T15:37:05.471Z,16.42
2023-01-03T15:39:46.967Z,23.58
2023-01-03T15:42:46.063Z,15.77
2023-01-03T15:45:22.647Z,19.45
2023-01-03T15:47:53.063Z,18.38
2023-01-03T15:50:20.666Z,14.80
2023-01-03T15:52:48.621Z,15.60
2023-01-03T15:55:17.361Z,15.18
2023-01-03T15:57:54.108Z,18.70
2023-01-03T16:00:24.104Z,28.23
2023-01-03T16:02:51.329Z,19.02
2023-01-03T16:05:22.641Z,20.35
2023-01-03T16:07:51.752Z,19.02
2023-01-03T16:10:21.795Z,17.83
2023-01-03T16:12:48.889Z,17.98
2023-01-03T16:15:22.683Z,18.40
2023-01-03T16:17:51.651Z,19.92
2023-01-03T16:20:19.386Z,25.52
2023-01-03T16:22:59.623Z,28.15
2023-01-03T16:25:28.041Z,27.77
2023-01-03T16:27:55.208Z,51.45
2023-01-03T16:30:24.226Z,33.58
2023-01-03T16:32:51.966Z,22.30
2023-01-03T16:35:20.618Z,22.23
2023-01-03T16:37:47.768Z,20.20
2023-01-03T16:40:17.326Z,20.10
2023-01-03T16:42:44.585Z,38.65
2023-01-03T16:45:11.753Z,26.48
2023-01-03T16:47:39.955Z,20.85
2023-01-03T16:50:14.415Z,26.50
2023-01-03T16:52:46.625Z,45.10
2023-01-03T16:55:24.162Z,33.72
2023-01-03T16:57:54.541Z,33.33
2023-01-03T17:00:25.008Z,26.40
2023-01-03T17:02:54.507Z,21.02
2023-01-03T17:05:23.828Z,18.38
2023-01-03T17:07:55.913Z,18.20
2023-01-03T17:10:29.148Z,19.85
2023-01-03T17:12:58.403Z,17.00
2023-01-03T17:15:26.483Z,17.48
2023-01-03T17:17:53.825Z,19.23
2023-01-03T17:20:21.898Z,21.67
2023-01-03T17:22:56.501Z,23.50
2023-01-03T17:25:25.092Z,17.95
2023-01-03T17:27:55.195Z,24.75
2023-01-03T17:30:25.316Z,19.98
2023-01-03T17:32:52.381Z,31.77
2023-01-03T17:35:19.604Z,26.50
2023-01-03T17:40:34.771Z,21.00
2023-01-03T17:43:02.483Z,20.23
2023-01-03T17:45:48.010Z,18.90
2023-01-03T17:48:33.872Z,21.58
2023-01-03T17:51:01.803Z,20.63
2023-01-03T17:53:29.678Z,20.33
2023-01-03T17:55:56.611Z,17.92
2023-01-03T17:58:32.213Z,35.50
2023-01-03T18:00:59.371Z,43.08
2023-01-03T18:03:26.431Z,33.40
2023-01-03T18:05:54.850Z,26.55
2023-01-03T18:08:24.163Z,20.95
2023-01-03T18:13:37.114Z,25.90
2023-01-03T18:16:05.091Z,24.02
2023-01-03T18:18:32.863Z,27.13
2023-01-03T18:21:02.065Z,29.08
2023-01-03T18:26:04.501Z,23.38
2023-01-03T18:28:32.240Z,24.33
2023-01-03T18:30:59.310Z,21.30
2023-01-03T18:33:26.348Z,18.35
2023-01-03T18:35:54.016Z,32.58
2023-01-03T18:38:41.160Z,20.27
2023-01-03T18:41:18.474Z,22.05
2023-01-03T18:43:45.473Z,24.30
2023-01-03T18:46:16.909Z,22.20
2023-01-03T18:48:44.044Z,23.63
2023-01-03T18:51:19.453Z,15.45
2023-01-03T18:53:50.988Z,16.52
2023-01-03T18:56:25.937Z,17.42
2023-01-03T18:59:01.577Z,18.60
2023-01-03T19:01:30.104Z,15.25
2023-01-03T19:03:57.745Z,14.07
2023-01-03T19:06:33.856Z,15.23
2023-01-03T19:09:04.235Z,16.13
2023-01-03T19:11:34.730Z,15.70
2023-01-03T19:14:03.452Z,14.98
2023-01-03T19:16:34.311Z,13.93
2023-01-03T19:19:02.609Z,14.48
2023-01-03T19:21:33.504Z,20.23
2023-01-03T19:24:19.681Z,17.45
2023-01-03T19:27:10.339Z,19.70
2023-01-03T19:29:38.498Z,16.38
2023-01-03T19:32:28.388Z,22.38
2023-01-03T19:34:55.770Z,16.27
2023-01-03T19:37:23.775Z,23.50
2023-01-03T19:39:51.541Z,19.42
2023-01-03T19:42:38.929Z,17.58
2023-01-03T19:45:17.169Z,16.58
2023-01-03T19:47:44.421Z,16.35
2023-01-03T19:50:21.782Z,17.90
2023-01-03T19:52:49.120Z,17.40
2023-01-03T19:55:17.508Z,14.52
2023-01-03T19:57:47.571Z,14.00
2023-01-03T20:00:44.069Z,13.63
2023-01-03T20:03:25.688Z,13.60
2023-01-03T20:05:53.140Z,12.98
2023-01-03T20:08:20.248Z,18.90
2023-01-03T20:10:47.643Z,16.08
2023-01-03T20:13:20.404Z,14.20
2023-01-03T20:15:48.792Z,15.15
2023-01-03T20:18:28.619Z,14.15
2023-01-03T20:21:06.500Z,13.80
2023-01-03T20:23:37.344Z,14.32
2023-01-03T20:26:05.045Z,15.50
2023-01-03T20:28:32.592Z,14.40
2023-01-03T20:31:01.118Z,15.88
2023-01-03T20:33:28.677Z,15.60
2023-01-03T20:36:11.588Z,17.42
2023-01-03T20:38:44.547Z,12.45
2023-01-03T20:41:12.745Z,14.35
2023-01-03T20:43:39.628Z,14.82
2023-01-03T20:46:10.267Z,14.93
2023-01-03T20:48:37.241Z,16.05
2023-01-03T20:51:04.159Z,13.63
2023-01-03T20:53:31.117Z,15.43
2023-01-03T20:55:57.986Z,17.30
2023-01-03T20:58:25.729Z,14.10
2023-01-03T21:00:58.168Z,14.77
2023-01-03T21:03:30.951Z,21.58
2023-01-03T21:05:59.106Z,15.80
2023-01-03T21:08:44.521Z,11.40
2023-01-03T21:11:12.342Z,12.52
2023-01-03T21:13:39.665Z,13.02
2023-01-03T21:16:26.085Z,11.40
2023-01-03T21:18:53.541Z,13.98
2023-01-03T21:21:22.121Z,12.15
2023-01-03T21:23:49.241Z,14.75
2023-01-03T21:26:16.206Z,13.30
2023-01-03T21:28:43.258Z,12.15
2023-01-03T21:31:17.377Z,13.45
2023-01-03T21:33:44.888Z,12.57
2023-01-03T21:36:23.428Z,14.38
2023-01-03T21:38:51.613Z,14.57
2023-01-03T21:41:21.549Z,12.52
2023-01-03T21:43:48.625Z,13.75
2023-01-03T21:46:17.927Z,15.10
2023-01-03T21:48:45.105Z,14.10
2023-01-03T21:51:13.880Z,15.73
2023-01-03T21:53:41.615Z,15.00
2023-01-03T21:56:19.190Z,15.95
2023-01-03T21:58:46.240Z,17.48
2023-01-03T22:01:16.901Z,16.38
2023-01-03T22:04:02.524Z,17.38
2023-01-03T22:06:29.533Z,16.02
2023-01-03T22:08:57.449Z,17.95
2023-01-03T22:11:25.207Z,18.83
2023-01-03T22:13:55.285Z,17.63
2023-01-03T22:16:23.117Z,18.20
2023-01-03T22:18:50.020Z,16.52
2023-01-03T22:21:17.174Z,15.93
2023-01-03T22:23:43.994Z,18.38
2023-01-03T22:26:13.096Z,17.20
2023-01-03T22:28:42.425Z,17.50
2023-01-03T22:31:22.837Z,16.77
2023-01-03T22:33:50.768Z,16.83
2023-01-03T22:36:18.016Z,20.08
2023-01-03T22:38:45.209Z,20.77
2023-01-03T22:41:17.260Z,19.02
2023-01-03T22:43:45.443Z,17.98
2023-01-03T22:46:14.790Z,16.65
2023-01-03T22:48:42.771Z,19.15
2023-01-03T22:51:12.802Z,17.00
2023-01-03T22:53:41.468Z,20.50
2023-01-03T22:56:11.272Z,17.88
2023-01-03T22:58:38.757Z,18.80
2023-01-03T23:01:16.892Z,20.08
2023-01-03T23:03:45.364Z,20.67
2023-01-03T23:06:15.731Z,37.90
2023-01-03T23:08:43.334Z,22.45
2023-01-03T23:11:34.987Z,18.23
2023-01-03T23:14:05.282Z,22.23
2023-01-03T23:16:32.474Z,18.95
2023-01-03T23:19:02.335Z,19.23
2023-01-03T23:21:29.427Z,20.55
2023-01-03T23:23:56.517Z,18.42
2023-01-03T23:26:23.511Z,19.45
2023-01-03T23:28:54.628Z,18.55
2023-01-03T23:31:21.730Z,17.90
2023-01-03T23:33:49.026Z,18.02
2023-01-03T23:36:17.146Z,17.60
2023-01-03T23:38:44.044Z,18.38
2023-01-03T23:41:11.251Z,17.75
2023-01-03T23:43:38.825Z,18.85
2023-01-03T23:46:06.619Z,21.40
2023-01-03T23:48:33.962Z,17.95
2023-01-03T23:51:08.575Z,17.63
2023-01-03T23:53:37.983Z,17.88
2023-01-03T23:56:09.565Z,16.50
2023-01-03T23:58:36.580Z,18.45
